createdAt,value
2022-07-28T00:00:45.365Z,22.36
2022-07-28T00:03:12.645Z,22.43
2022-07-28T00:05:39.477Z,22.39
2022-07-28T00:08:06.226Z,22.14
2022-07-28T00:10:34.135Z,22.05
2022-07-28T00:13:00.948Z,21.90
2022-07-28T00:15:27.924Z,21.62
2022-07-28T00:17:54.813Z,21.56
2022-07-28T00:20:21.566Z,21.68
2022-07-28T00:22:48.356Z,21.72
2022-07-28T00:25:15.353Z,21.69
2022-07-28T00:27:42.248Z,21.69
2022-07-28T00:30:10.176Z,21.75
2022-07-28T00:32:37.926Z,21.51
2022-07-28T00:35:08.328Z,21.38
2022-07-28T00:37:35.702Z,21.57
2022-07-28T00:40:08.295Z,21.69
2022-07-28T00:42:35.030Z,21.44
2022-07-28T00:45:01.846Z,21.46
2022-07-28T00:47:33.503Z,21.25
2022-07-28T00:50:02.102Z,21.19
2022-07-28T00:52:29.106Z,21.15
2022-07-28T00:54:58.071Z,21.17
2022-07-28T00:57:24.978Z,21.08
2022-07-28T00:59:52.080Z,21.19
2022-07-28T01:02:19.453Z,21.01
2022-07-28T01:04:46.840Z,20.95
2022-07-28T01:07:28.655Z,21.08
2022-07-28T01:10:05.474Z,21.15
2022-07-28T01:13:09.024Z,21.17
2022-07-28T01:15:40.978Z,21.16
2022-07-28T01:18:15.885Z,21.08
2022-07-28T01:20:48.235Z,20.99
2022-07-28T01:23:20.993Z,21.05
2022-07-28T01:26:10.332Z,21.06
2022-07-28T01:29:18.543Z,21.12
2022-07-28T01:31:51.351Z,21.23
2022-07-28T01:34:23.652Z,21.27
2022-07-28T01:36:58.543Z,21.09
2022-07-28T01:39:31.029Z,21.10
2022-07-28T01:41:58.686Z,21.23
2022-07-28T01:44:28.287Z,21.32
2022-07-28T01:46:57.580Z,21.27
2022-07-28T01:49:27.408Z,21.25
2022-07-28T01:51:56.655Z,21.26
2022-07-28T01:54:27.376Z,21.00
2022-07-28T01:56:56.071Z,20.92
2022-07-28T01:59:24.778Z,21.08
2022-07-28T02:01:53.271Z,21.00
2022-07-28T02:04:23.882Z,20.88
2022-07-28T02:06:52.835Z,20.83
2022-07-28T02:09:22.596Z,20.83
2022-07-28T02:11:53.156Z,20.83
2022-07-28T02:14:23.518Z,20.77
2022-07-28T02:16:58.807Z,20.73
2022-07-28T02:19:27.862Z,20.77
2022-07-28T02:21:55.645Z,20.79
2022-07-28T02:24:28.307Z,20.54
2022-07-28T02:27:06.117Z,20.73
2022-07-28T02:29:50.795Z,20.67
2022-07-28T02:32:45.069Z,20.75
2022-07-28T02:36:07.424Z,20.69
2022-07-28T02:38:45.170Z,20.39
2022-07-28T02:41:18.938Z,19.39
2022-07-28T02:43:49.003Z,18.93
2022-07-28T02:46:22.198Z,18.66
2022-07-28T02:48:52.877Z,18.51
2022-07-28T02:51:23.900Z,18.67
2022-07-28T02:53:53.263Z,18.74
2022-07-28T02:56:21.542Z,18.75
2022-07-28T02:58:48.798Z,18.63
2022-07-28T03:01:19.254Z,18.53
2022-07-28T03:03:50.477Z,18.55
2022-07-28T03:06:28.355Z,18.52
2022-07-28T03:08:57.650Z,18.42
2022-07-28T03:11:24.878Z,18.51
2022-07-28T03:13:51.572Z,18.42
2022-07-28T03:16:18.470Z,18.38
2022-07-28T03:18:45.364Z,18.43
2022-07-28T03:21:12.064Z,18.48
2022-07-28T03:23:42.304Z,18.57
2022-07-28T03:26:41.346Z,18.68
2022-07-28T03:29:12.040Z,18.59
2022-07-28T03:31:41.443Z,18.64
2022-07-28T03:34:11.398Z,18.76
2022-07-28T03:36:43.979Z,18.82
2022-07-28T03:39:12.249Z,18.92
2022-07-28T03:41:42.321Z,18.91
2022-07-28T03:44:12.532Z,19.07
2022-07-28T03:46:46.563Z,19.27
2022-07-28T03:49:13.422Z,19.19
2022-07-28T03:51:40.027Z,19.08
2022-07-28T03:54:06.617Z,19.00
2022-07-28T03:56:33.146Z,19.05
2022-07-28T03:59:07.262Z,19.06
2022-07-28T04:01:33.878Z,19.01
2022-07-28T04:04:00.469Z,19.00
2022-07-28T04:06:27.049Z,18.96
2022-07-28T04:09:03.852Z,19.09
2022-07-28T04:11:30.429Z,19.16
2022-07-28T04:13:57.098Z,19.07
2022-07-28T04:16:24.333Z,19.18
2022-07-28T04:18:50.911Z,19.27
2022-07-28T04:21:17.865Z,19.44
2022-07-28T04:23:44.546Z,19.52
2022-07-28T04:26:11.238Z,19.58
2022-07-28T04:28:37.823Z,19.53
2022-07-28T04:31:04.501Z,19.51
2022-07-28T04:33:31.248Z,19.44
2022-07-28T04:35:57.910Z,19.58
2022-07-28T04:38:24.529Z,19.66
2022-07-28T04:40:51.225Z,19.64
2022-07-28T04:43:18.111Z,19.77
2022-07-28T04:45:53.483Z,19.74
2022-07-28T04:48:21.259Z,19.73
2022-07-28T04:50:47.873Z,19.65
2022-07-28T04:53:14.396Z,19.83
2022-07-28T04:55:41.117Z,19.83
2022-07-28T04:58:09.463Z,19.76
2022-07-28T05:00:36.320Z,19.83
2022-07-28T05:03:04.328Z,19.93
2022-07-28T05:05:30.992Z,19.92
2022-07-28T05:08:00.130Z,19.98
2022-07-28T05:10:27.021Z,20.07
2022-07-28T05:12:54.644Z,20.10
2022-07-28T05:15:21.281Z,20.15
2022-07-28T05:17:49.872Z,20.11
2022-07-28T05:20:17.604Z,20.07
2022-07-28T05:22:45.002Z,20.07
2022-07-28T05:25:15.717Z,20.17
2022-07-28T05:27:42.525Z,20.28
2022-07-28T05:30:09.583Z,20.34
2022-07-28T05:32:36.208Z,20.50
2022-07-28T05:35:02.920Z,20.75
2022-07-28T05:37:29.526Z,20.95
2022-07-28T05:39:56.081Z,21.11
2022-07-28T05:42:22.697Z,21.29
2022-07-28T05:44:49.351Z,21.54
2022-07-28T05:47:16.136Z,21.76
2022-07-28T05:49:42.737Z,21.97
2022-07-28T05:52:09.391Z,22.09
2022-07-28T05:54:35.992Z,22.19
2022-07-28T05:57:02.617Z,22.31
2022-07-28T05:59:29.153Z,22.36
2022-07-28T06:01:55.919Z,22.52
2022-07-28T06:04:25.550Z,22.19
2022-07-28T06:06:53.984Z,22.08
2022-07-28T06:09:21.096Z,22.11
2022-07-28T06:11:47.730Z,22.35
2022-07-28T06:14:14.734Z,22.51
2022-07-28T06:16:42.340Z,22.60
2022-07-28T06:19:08.942Z,22.45
2022-07-28T06:21:35.532Z,22.42
2022-07-28T06:24:02.140Z,22.43
2022-07-28T06:26:28.738Z,22.47
2022-07-28T06:28:55.295Z,22.59
2022-07-28T06:31:21.982Z,22.78
2022-07-28T06:33:49.880Z,22.89
2022-07-28T06:36:16.377Z,22.89
2022-07-28T06:38:43.101Z,23.16
2022-07-28T06:41:09.725Z,23.34
2022-07-28T06:43:39.119Z,23.46
2022-07-28T06:46:05.915Z,23.49
2022-07-28T06:48:32.647Z,23.58
2022-07-28T06:51:01.313Z,23.74
2022-07-28T06:53:33.763Z,23.93
2022-07-28T06:56:00.759Z,24.10
2022-07-28T06:58:27.357Z,23.99
2022-07-28T07:00:55.009Z,24.14
2022-07-28T07:03:21.581Z,24.28
2022-07-28T07:05:49.050Z,24.38
2022-07-28T07:08:20.881Z,24.45
2022-07-28T07:10:47.715Z,24.53
2022-07-28T07:13:14.276Z,24.57
2022-07-28T07:15:40.920Z,24.57
2022-07-28T07:18:07.648Z,24.61
2022-07-28T07:20:34.216Z,24.49
2022-07-28T07:23:00.847Z,24.51
2022-07-28T07:25:27.629Z,24.61
2022-07-28T07:27:54.270Z,24.65
2022-07-28T07:30:20.839Z,24.77
2022-07-28T07:35:03.698Z,25.46
2022-07-28T07:37:32.674Z,25.84
2022-07-28T07:40:04.313Z,26.10
2022-07-28T07:42:31.065Z,26.35
2022-07-28T07:44:57.943Z,26.55
2022-07-28T07:47:24.553Z,26.69
2022-07-28T07:49:51.776Z,26.77
2022-07-28T07:52:18.659Z,26.86
2022-07-28T07:54:45.732Z,26.98
2022-07-28T07:57:12.530Z,27.04
2022-07-28T07:59:39.215Z,27.18
2022-07-28T08:02:06.525Z,27.31
2022-07-28T08:04:37.162Z,27.44
2022-07-28T08:07:05.547Z,27.58
2022-07-28T08:09:32.765Z,27.77
2022-07-28T08:12:00.096Z,27.70
2022-07-28T08:14:27.015Z,27.82
2022-07-28T08:16:56.574Z,27.94
2022-07-28T08:19:23.799Z,28.02
2022-07-28T08:21:51.178Z,28.10
2022-07-28T08:24:32.864Z,28.21
2022-07-28T08:27:04.192Z,28.22
2022-07-28T08:29:31.346Z,28.07
2022-07-28T08:31:58.187Z,28.21
2022-07-28T08:34:28.463Z,28.28
2022-07-28T08:37:00.096Z,28.27
2022-07-28T08:39:26.894Z,28.16
2022-07-28T08:42:05.174Z,28.19
2022-07-28T08:44:41.612Z,28.14
2022-07-28T08:47:11.244Z,28.09
2022-07-28T08:49:42.558Z,28.12
2022-07-28T08:52:14.164Z,28.17
2022-07-28T08:54:46.366Z,28.13
2022-07-28T08:57:30.958Z,28.08
2022-07-28T08:59:58.964Z,28.01
2022-07-28T09:02:27.264Z,28.11
2022-07-28T09:04:56.049Z,28.08
2022-07-28T09:07:24.001Z,28.03
2022-07-28T09:09:51.170Z,28.06
2022-07-28T09:12:27.309Z,28.07
2022-07-28T09:14:54.649Z,28.09
2022-07-28T09:17:21.837Z,28.09
2022-07-28T09:19:48.916Z,28.15
2022-07-28T09:22:15.924Z,28.16
2022-07-28T09:24:46.685Z,28.14
2022-07-28T09:27:15.890Z,28.28
2022-07-28T09:29:47.222Z,28.37
2022-07-28T09:32:16.366Z,28.29
2022-07-28T09:34:45.817Z,28.29
2022-07-28T09:37:27.066Z,28.33
2022-07-28T09:40:00.267Z,28.38
2022-07-28T09:42:46.138Z,28.45
2022-07-28T09:45:22.887Z,28.40
2022-07-28T09:47:52.678Z,28.40
2022-07-28T09:50:27.875Z,28.42
2022-07-28T09:52:54.811Z,28.55
2022-07-28T09:55:22.043Z,28.49
2022-07-28T09:57:50.881Z,28.61
2022-07-28T10:00:28.578Z,28.79
2022-07-28T10:02:55.686Z,28.88
2022-07-28T10:05:22.850Z,28.85
2022-07-28T10:07:55.233Z,28.88
2022-07-28T10:10:22.480Z,29.00
2022-07-28T10:12:52.083Z,29.08
2022-07-28T10:15:45.452Z,29.00
2022-07-28T10:18:17.851Z,29.20
2022-07-28T10:20:45.732Z,29.16
2022-07-28T10:23:19.120Z,29.18
2022-07-28T10:25:46.519Z,29.39
2022-07-28T10:28:16.827Z,29.52
2022-07-28T10:30:45.168Z,29.65
2022-07-28T10:33:19.698Z,29.77
2022-07-28T10:35:55.206Z,29.78
2022-07-28T10:38:26.424Z,29.89
2022-07-28T10:40:58.246Z,30.03
2022-07-28T10:43:28.240Z,30.10
2022-07-28T10:46:05.543Z,30.02
2022-07-28T10:48:33.741Z,30.03
2022-07-28T10:51:01.591Z,30.07
2022-07-28T10:53:39.580Z,30.20
2022-07-28T10:56:15.811Z,30.03
2022-07-28T10:59:02.775Z,30.10
2022-07-28T11:01:50.333Z,29.95
2022-07-28T11:04:48.209Z,29.77
2022-07-28T11:07:17.169Z,29.77
2022-07-28T11:09:45.684Z,29.99
2022-07-28T11:12:15.394Z,30.05
2022-07-28T11:14:43.580Z,30.13
2022-07-28T11:17:11.337Z,29.87
2022-07-28T11:19:46.745Z,30.01
2022-07-28T11:22:32.178Z,30.04
2022-07-28T11:25:20.775Z,30.06
2022-07-28T11:27:51.346Z,30.27
2022-07-28T11:30:36.097Z,30.14
2022-07-28T11:33:04.897Z,30.18
2022-07-28T11:35:38.621Z,30.46
2022-07-28T11:38:05.370Z,30.59
2022-07-28T11:40:39.361Z,30.71
2022-07-28T11:43:22.497Z,30.88
2022-07-28T11:46:15.362Z,30.95
2022-07-28T11:48:46.811Z,30.73
2022-07-28T11:51:14.220Z,30.78
2022-07-28T11:53:43.492Z,30.85
2022-07-28T11:56:22.777Z,30.93
2022-07-28T11:58:57.502Z,30.93
2022-07-28T12:01:24.230Z,30.89
2022-07-28T12:03:55.755Z,30.99
2022-07-28T12:06:35.407Z,31.03
2022-07-28T12:09:07.384Z,30.78
2022-07-28T12:11:41.147Z,31.00
2022-07-28T12:14:08.026Z,31.08
2022-07-28T12:16:40.039Z,31.13
2022-07-28T12:19:08.396Z,31.12
2022-07-28T12:21:47.710Z,30.98
2022-07-28T12:24:44.829Z,31.11
2022-07-28T12:27:16.720Z,31.07
2022-07-28T12:29:44.000Z,30.94
2022-07-28T12:32:20.421Z,31.13
2022-07-28T12:34:48.093Z,31.22
2022-07-28T12:37:15.056Z,31.19
2022-07-28T12:39:43.932Z,31.21
2022-07-28T12:42:12.952Z,31.25
2022-07-28T12:44:46.487Z,31.24
2022-07-28T12:47:16.203Z,31.26
2022-07-28T12:49:45.168Z,31.29
2022-07-28T12:52:35.557Z,31.24
2022-07-28T12:55:02.540Z,31.17
2022-07-28T12:57:48.016Z,31.07
2022-07-28T13:00:23.366Z,31.04
2022-07-28T13:02:52.202Z,31.08
2022-07-28T13:05:33.442Z,31.12
2022-07-28T13:08:05.830Z,30.99
2022-07-28T13:10:33.175Z,30.91
2022-07-28T13:13:05.355Z,30.91
2022-07-28T13:15:32.593Z,30.96
2022-07-28T13:17:59.836Z,31.00
2022-07-28T13:20:27.198Z,31.13
2022-07-28T13:22:55.164Z,31.23
2022-07-28T13:25:45.747Z,31.04
2022-07-28T13:28:30.761Z,31.24
2022-07-28T13:30:57.502Z,31.15
2022-07-28T13:33:26.883Z,31.28
2022-07-28T13:35:55.745Z,31.31
2022-07-28T13:38:24.076Z,31.18
2022-07-28T13:40:54.609Z,31.06
2022-07-28T13:43:21.378Z,31.25
2022-07-28T13:45:48.360Z,31.23
2022-07-28T13:48:15.824Z,31.25
2022-07-28T13:50:42.640Z,31.31
2022-07-28T13:53:09.343Z,31.39
2022-07-28T13:55:37.311Z,31.41
2022-07-28T13:58:08.868Z,31.39
2022-07-28T14:00:36.331Z,31.14
2022-07-28T14:03:04.460Z,31.07
2022-07-28T14:05:35.989Z,31.09
2022-07-28T14:08:02.979Z,31.06
2022-07-28T14:10:32.300Z,31.22
2022-07-28T14:12:59.446Z,31.08
2022-07-28T14:15:29.166Z,31.07
2022-07-28T14:17:56.250Z,31.14
2022-07-28T14:20:23.225Z,31.16
2022-07-28T14:22:50.869Z,31.15
2022-07-28T14:25:49.098Z,31.10
2022-07-28T14:28:24.274Z,31.01
2022-07-28T14:30:51.099Z,30.97
2022-07-28T14:33:18.164Z,30.97
2022-07-28T14:35:45.099Z,30.90
2022-07-28T14:38:51.631Z,30.83
2022-07-28T14:41:01.244Z,30.82
2022-07-28T14:43:28.207Z,30.77
2022-07-28T14:46:13.322Z,30.69
2022-07-28T14:48:42.315Z,30.63
2022-07-28T14:51:11.697Z,30.58
2022-07-28T14:53:43.336Z,30.59
2022-07-28T14:56:19.050Z,30.56
2022-07-28T14:58:45.867Z,30.55
2022-07-28T15:01:13.035Z,30.54
2022-07-28T15:03:43.092Z,30.42
2022-07-28T15:06:10.861Z,30.41
2022-07-28T15:08:42.716Z,30.40
2022-07-28T15:11:09.710Z,30.38
2022-07-28T15:13:36.514Z,30.31
2022-07-28T15:16:03.430Z,30.32
2022-07-28T15:18:30.652Z,30.32
2022-07-28T15:20:57.500Z,30.27
2022-07-28T15:23:25.629Z,30.20
2022-07-28T15:25:53.362Z,30.17
2022-07-28T15:28:20.571Z,30.19
2022-07-28T15:30:52.701Z,30.23
2022-07-28T15:33:22.304Z,30.21
2022-07-28T15:35:58.387Z,30.15
2022-07-28T15:38:31.829Z,30.17
2022-07-28T15:40:59.243Z,30.12
2022-07-28T15:43:26.611Z,30.10
2022-07-28T15:45:55.679Z,30.05
2022-07-28T15:48:23.229Z,30.01
2022-07-28T15:50:50.048Z,30.05
2022-07-28T15:53:17.041Z,30.02
2022-07-28T15:55:48.927Z,29.99
2022-07-28T15:58:17.473Z,29.79
2022-07-28T16:00:44.748Z,29.71
2022-07-28T16:03:11.866Z,29.63
2022-07-28T16:05:38.662Z,29.57
2022-07-28T16:08:05.611Z,29.55
2022-07-28T16:10:32.489Z,29.51
2022-07-28T16:12:59.429Z,29.44
2022-07-28T16:15:27.154Z,29.41
2022-07-28T16:17:56.739Z,29.37
2022-07-28T16:20:24.604Z,29.35
2022-07-28T16:22:51.530Z,29.33
2022-07-28T16:25:20.463Z,29.30
2022-07-28T16:27:49.326Z,29.29
2022-07-28T16:30:17.394Z,29.16
2022-07-28T16:32:44.274Z,29.06
2022-07-28T16:35:11.134Z,29.07
2022-07-28T16:37:40.263Z,28.97
2022-07-28T16:40:09.426Z,28.96
2022-07-28T16:42:36.543Z,28.90
2022-07-28T16:45:04.470Z,28.88
2022-07-28T16:47:31.164Z,28.88
2022-07-28T16:49:57.941Z,28.86
2022-07-28T16:52:24.722Z,28.80
2022-07-28T16:54:51.572Z,28.80
2022-07-28T16:57:18.297Z,28.74
2022-07-28T16:59:47.960Z,28.68
2022-07-28T17:02:15.571Z,28.63
2022-07-28T17:04:42.476Z,28.60
2022-07-28T17:07:09.297Z,28.56
2022-07-28T17:09:35.982Z,28.51
2022-07-28T17:12:02.748Z,28.46
2022-07-28T17:14:29.608Z,28.39
2022-07-28T17:16:56.403Z,28.35
2022-07-28T17:19:23.081Z,28.27
2022-07-28T17:21:49.815Z,28.22
2022-07-28T17:24:16.893Z,28.19
2022-07-28T17:29:31.532Z,28.04
2022-07-28T17:31:58.213Z,27.97
2022-07-28T17:34:24.976Z,27.90
2022-07-28T17:36:52.622Z,27.82
2022-07-28T17:39:20.017Z,27.80
2022-07-28T17:41:48.089Z,27.76
2022-07-28T17:44:15.275Z,27.65
2022-07-28T17:46:42.688Z,27.54
2022-07-28T17:49:09.611Z,27.47
2022-07-28T17:51:37.545Z,27.40
2022-07-28T17:54:04.366Z,27.35
2022-07-28T17:56:32.406Z,27.29
2022-07-28T17:58:59.933Z,27.21
2022-07-28T18:01:26.671Z,27.12
2022-07-28T18:03:56.661Z,27.06
2022-07-28T18:06:28.543Z,26.94
2022-07-28T18:08:55.332Z,26.82
2022-07-28T18:11:21.974Z,26.76
2022-07-28T18:14:03.778Z,26.72
2022-07-28T18:16:34.309Z,26.63
2022-07-28T18:19:02.193Z,26.66
2022-07-28T18:21:29.424Z,26.68
2022-07-28T18:23:57.381Z,26.55
2022-07-28T18:26:24.258Z,26.48
2022-07-28T18:28:52.702Z,26.45
2022-07-28T18:31:26.811Z,26.39
2022-07-28T18:33:53.796Z,26.35
2022-07-28T18:36:20.640Z,26.28
2022-07-28T18:38:48.879Z,26.23
2022-07-28T18:41:17.613Z,26.22
2022-07-28T18:43:46.827Z,26.19
2022-07-28T18:46:14.290Z,26.16
2022-07-28T18:48:41.213Z,26.15
2022-07-28T18:51:07.991Z,26.15
2022-07-28T18:53:36.049Z,26.08
2022-07-28T18:56:02.780Z,26.14
2022-07-28T18:58:29.795Z,26.17
2022-07-28T19:00:56.754Z,26.17
2022-07-28T19:03:23.560Z,26.20
2022-07-28T19:05:50.984Z,26.16
2022-07-28T19:08:17.695Z,26.19
2022-07-28T19:10:44.500Z,26.18
2022-07-28T19:13:13.219Z,26.19
2022-07-28T19:15:41.509Z,26.15
2022-07-28T19:18:10.671Z,26.14
2022-07-28T19:20:44.072Z,26.13
2022-07-28T19:23:11.016Z,26.11
2022-07-28T19:25:39.414Z,26.04
2022-07-28T19:28:06.485Z,26.07
2022-07-28T19:30:33.415Z,26.06
2022-07-28T19:33:00.430Z,26.06
2022-07-28T19:35:27.164Z,25.97
2022-07-28T19:37:56.568Z,25.84
2022-07-28T19:40:25.288Z,25.82
2022-07-28T19:42:52.201Z,25.88
2022-07-28T19:45:18.972Z,25.84
2022-07-28T19:47:46.013Z,25.87
2022-07-28T19:50:16.885Z,25.90
2022-07-28T19:52:43.693Z,25.82
2022-07-28T19:55:22.261Z,25.85
2022-07-28T19:57:50.401Z,25.85
2022-07-28T20:00:20.469Z,25.86
2022-07-28T20:02:47.222Z,25.77
2022-07-28T20:05:13.928Z,25.79
2022-07-28T20:07:40.596Z,25.72
2022-07-28T20:10:07.526Z,25.72
2022-07-28T20:12:36.668Z,25.77
2022-07-28T20:15:07.514Z,25.73
2022-07-28T20:17:39.551Z,25.70
2022-07-28T20:20:11.799Z,25.73
2022-07-28T20:22:39.770Z,25.67
2022-07-28T20:25:09.312Z,25.68
2022-07-28T20:27:40.631Z,25.74
2022-07-28T20:30:12.939Z,25.79
2022-07-28T20:32:42.142Z,25.71
2022-07-28T20:35:09.986Z,25.69
2022-07-28T20:37:37.914Z,25.62
2022-07-28T20:40:08.552Z,25.64
2022-07-28T20:42:36.765Z,25.70
2022-07-28T20:45:04.690Z,25.65
2022-07-28T20:47:32.568Z,25.67
2022-07-28T20:49:59.914Z,25.64
2022-07-28T20:52:26.718Z,25.65
2022-07-28T20:54:54.874Z,25.60
2022-07-28T20:57:22.656Z,25.58
2022-07-28T20:59:51.188Z,25.57
2022-07-28T21:02:19.655Z,25.49
2022-07-28T21:04:48.239Z,25.49
2022-07-28T21:07:59.622Z,25.41
2022-07-28T21:10:08.324Z,25.32
2022-07-28T21:12:37.340Z,25.36
2022-07-28T21:15:09.397Z,25.33
2022-07-28T21:17:36.751Z,25.32
2022-07-28T21:20:05.133Z,25.32
2022-07-28T21:22:31.981Z,25.30
2022-07-28T21:24:59.301Z,25.32
2022-07-28T21:27:26.093Z,25.26
2022-07-28T21:32:19.013Z,25.21
2022-07-28T21:34:45.784Z,25.15
2022-07-28T21:37:13.186Z,25.15
2022-07-28T21:39:40.375Z,25.18
2022-07-28T21:42:08.860Z,25.15
2022-07-28T21:44:37.436Z,25.17
2022-07-28T21:47:04.748Z,25.16
2022-07-28T21:49:32.480Z,25.18
2022-07-28T21:51:59.830Z,25.20
2022-07-28T21:54:27.305Z,25.19
2022-07-28T21:56:54.192Z,25.21
2022-07-28T21:59:21.038Z,25.22
2022-07-28T22:01:47.954Z,25.23
2022-07-28T22:04:15.163Z,25.22
2022-07-28T22:06:46.091Z,25.18
2022-07-28T22:09:14.141Z,25.19
2022-07-28T22:11:40.855Z,25.14
2022-07-28T22:14:07.597Z,25.10
2022-07-28T22:16:34.388Z,25.01
2022-07-28T22:19:01.265Z,24.99
2022-07-28T22:21:27.951Z,25.00
2022-07-28T22:23:54.718Z,25.00
2022-07-28T22:26:21.903Z,24.86
2022-07-28T22:28:48.679Z,24.87
2022-07-28T22:31:15.465Z,24.80
2022-07-28T22:33:42.220Z,24.89
2022-07-28T22:36:09.185Z,24.83
2022-07-28T22:38:36.451Z,24.86
2022-07-28T22:41:03.410Z,24.71
2022-07-28T22:43:34.687Z,24.62
2022-07-28T22:46:01.460Z,24.59
2022-07-28T22:48:28.561Z,24.54
2022-07-28T22:50:55.630Z,24.44
2022-07-28T22:53:22.421Z,24.52
2022-07-28T22:55:49.395Z,24.51
2022-07-28T22:58:16.215Z,24.49
2022-07-28T23:00:43.662Z,24.51
2022-07-28T23:03:13.197Z,24.49
2022-07-28T23:05:42.806Z,24.43
2022-07-28T23:08:10.530Z,24.35
2022-07-28T23:10:38.010Z,24.26
2022-07-28T23:13:05.089Z,24.21
2022-07-28T23:15:39.977Z,24.28
2022-07-28T23:18:07.782Z,24.25
2022-07-28T23:20:36.820Z,24.28
2022-07-28T23:23:03.567Z,24.33
2022-07-28T23:25:30.381Z,24.32
2022-07-28T23:27:58.035Z,24.34
2022-07-28T23:30:24.843Z,24.30
2022-07-28T23:32:53.065Z,24.15
2022-07-28T23:35:19.937Z,24.13
2022-07-28T23:37:46.844Z,24.13
2022-07-28T23:40:14.142Z,24.13
2022-07-28T23:42:41.163Z,24.14
2022-07-28T23:45:08.917Z,24.10
2022-07-28T23:47:35.807Z,23.92
2022-07-28T23:50:04.364Z,23.93
2022-07-28T23:52:31.137Z,23.99
2022-07-28T23:54:58.081Z,24.01
2022-07-28T23:57:24.907Z,23.99
2022-07-28T23:59:58.052Z,23.97
